sensor_id;sensor_type;location;lat;lon;timestamp;temperature;humidity
53962;DHT22;39868;53.398;6.564;2022-08-01T00:00:50;20.80;82.50
53962;DHT22;39868;53.398;6.564;2022-08-01T00:03:18;20.80;82.50
53962;DHT22;39868;53.398;6.564;2022-08-01T00:05:46;20.80;82.60
53962;DHT22;39868;53.398;6.564;2022-08-01T00:08:14;20.80;82.60
53962;DHT22;39868;53.398;6.564;2022-08-01T00:10:42;20.80;82.60
53962;DHT22;39868;53.398;6.564;2022-08-01T00:13:09;20.80;82.70
53962;DHT22;39868;53.398;6.564;2022-08-01T00:15:37;20.80;82.70
53962;DHT22;39868;53.398;6.564;2022-08-01T00:18:05;20.70;83.20
53962;DHT22;39868;53.398;6.564;2022-08-01T00:20:32;20.70;82.70
53962;DHT22;39868;53.398;6.564;2022-08-01T00:23:02;20.70;82.60
53962;DHT22;39868;53.398;6.564;2022-08-01T00:25:30;20.70;82.60
53962;DHT22;39868;53.398;6.564;2022-08-01T00:28:01;20.70;82.70
53962;DHT22;39868;53.398;6.564;2022-08-01T00:30:30;20.70;82.70
53962;DHT22;39868;53.398;6.564;2022-08-01T00:32:58;20.70;82.70
53962;DHT22;39868;53.398;6.564;2022-08-01T00:35:25;20.70;82.70
53962;DHT22;39868;53.398;6.564;2022-08-01T00:37:53;20.60;82.60
53962;DHT22;39868;53.398;6.564;2022-08-01T00:40:21;20.60;82.60
53962;DHT22;39868;53.398;6.564;2022-08-01T00:42:48;20.60;82.60
53962;DHT22;39868;53.398;6.564;2022-08-01T00:45:16;20.60;82.50
53962;DHT22;39868;53.398;6.564;2022-08-01T00:47:44;20.60;82.40
53962;DHT22;39868;53.398;6.564;2022-08-01T00:50:12;20.60;82.40
53962;DHT22;39868;53.398;6.564;2022-08-01T00:52:40;20.60;82.40
53962;DHT22;39868;53.398;6.564;2022-08-01T00:55:09;20.50;82.30
53962;DHT22;39868;53.398;6.564;2022-08-01T00:57:41;20.50;82.30
53962;DHT22;39868;53.398;6.564;2022-08-01T01:00:28;20.50;82.30
53962;DHT22;39868;53.398;6.564;2022-08-01T01:03:01;20.50;82.30
53962;DHT22;39868;53.398;6.564;2022-08-01T01:05:30;20.50;82.30
53962;DHT22;39868;53.398;6.564;2022-08-01T01:08:08;20.50;82.30
53962;DHT22;39868;53.398;6.564;2022-08-01T01:13:26;20.40;82.00
53962;DHT22;39868;53.398;6.564;2022-08-01T01:15:59;20.40;81.80
53962;DHT22;39868;53.398;6.564;2022-08-01T01:18:35;20.40;81.80
53962;DHT22;39868;53.398;6.564;2022-08-01T01:24:13;20.30;81.80
53962;DHT22;39868;53.398;6.564;2022-08-01T01:28:04;20.20;81.90
53962;DHT22;39868;53.398;6.564;2022-08-01T01:30:00;20.20;81.90
53962;DHT22;39868;53.398;6.564;2022-08-01T01:32:54;20.20;82.00
53962;DHT22;39868;53.398;6.564;2022-08-01T01:35:26;20.20;82.00
53962;DHT22;39868;53.398;6.564;2022-08-01T01:38:09;20.10;81.90
53962;DHT22;39868;53.398;6.564;2022-08-01T01:40:38;20.10;81.90
53962;DHT22;39868;53.398;6.564;2022-08-01T01:43:10;20.10;82.00
53962;DHT22;39868;53.398;6.564;2022-08-01T01:45:40;20.10;82.10
53962;DHT22;39868;53.398;6.564;2022-08-01T01:48:10;20.00;82.10
53962;DHT22;39868;53.398;6.564;2022-08-01T01:50:43;20.00;82.20
53962;DHT22;39868;53.398;6.564;2022-08-01T01:53:16;20.00;82.30
53962;DHT22;39868;53.398;6.564;2022-08-01T01:55:47;20.10;82.50
53962;DHT22;39868;53.398;6.564;2022-08-01T01:58:17;20.10;82.50
53962;DHT22;39868;53.398;6.564;2022-08-01T02:00:48;20.00;82.50
53962;DHT22;39868;53.398;6.564;2022-08-01T02:03:18;20.10;82.60
53962;DHT22;39868;53.398;6.564;2022-08-01T02:05:47;20.00;82.50
53962;DHT22;39868;53.398;6.564;2022-08-01T02:08:16;20.00;82.50
53962;DHT22;39868;53.398;6.564;2022-08-01T02:10:46;20.00;82.30
53962;DHT22;39868;53.398;6.564;2022-08-01T02:13:34;20.00;82.90
53962;DHT22;39868;53.398;6.564;2022-08-01T02:16:04;19.90;82.20
53962;DHT22;39868;53.398;6.564;2022-08-01T02:18:33;19.90;82.20
53962;DHT22;39868;53.398;6.564;2022-08-01T02:21:04;19.90;82.20
53962;DHT22;39868;53.398;6.564;2022-08-01T02:23:34;19.90;82.10
53962;DHT22;39868;53.398;6.564;2022-08-01T02:26:07;19.80;82.00
53962;DHT22;39868;53.398;6.564;2022-08-01T02:28:48;19.80;82.00
53962;DHT22;39868;53.398;6.564;2022-08-01T02:31:20;19.80;82.00
53962;DHT22;39868;53.398;6.564;2022-08-01T02:34:00;19.80;82.00
53962;DHT22;39868;53.398;6.564;2022-08-01T02:36:34;19.80;82.00
53962;DHT22;39868;53.398;6.564;2022-08-01T02:39:09;19.70;82.00
53962;DHT22;39868;53.398;6.564;2022-08-01T02:41:41;19.70;82.00
53962;DHT22;39868;53.398;6.564;2022-08-01T02:44:13;19.70;82.00
53962;DHT22;39868;53.398;6.564;2022-08-01T02:47:02;19.70;82.10
53962;DHT22;39868;53.398;6.564;2022-08-01T02:49:33;19.70;82.10
53962;DHT22;39868;53.398;6.564;2022-08-01T02:52:07;19.70;82.00
53962;DHT22;39868;53.398;6.564;2022-08-01T02:54:36;19.60;81.90
53962;DHT22;39868;53.398;6.564;2022-08-01T02:57:06;19.70;81.90
53962;DHT22;39868;53.398;6.564;2022-08-01T02:59:40;19.60;81.80
53962;DHT22;39868;53.398;6.564;2022-08-01T03:02:11;19.60;81.70
53962;DHT22;39868;53.398;6.564;2022-08-01T03:04:40;19.70;81.60
53962;DHT22;39868;53.398;6.564;2022-08-01T03:07:10;19.70;81.30
53962;DHT22;39868;53.398;6.564;2022-08-01T03:09:44;19.60;81.00
53962;DHT22;39868;53.398;6.564;2022-08-01T03:12:20;19.60;80.90
53962;DHT22;39868;53.398;6.564;2022-08-01T03:14:51;19.60;80.80
53962;DHT22;39868;53.398;6.564;2022-08-01T03:17:23;19.60;80.70
53962;DHT22;39868;53.398;6.564;2022-08-01T03:19:53;19.60;80.70
53962;DHT22;39868;53.398;6.564;2022-08-01T03:22:23;19.50;80.50
53962;DHT22;39868;53.398;6.564;2022-08-01T03:24:52;19.50;80.40
53962;DHT22;39868;53.398;6.564;2022-08-01T03:27:22;19.50;80.30
53962;DHT22;39868;53.398;6.564;2022-08-01T03:29:55;19.50;80.30
53962;DHT22;39868;53.398;6.564;2022-08-01T03:32:23;19.50;80.40
53962;DHT22;39868;53.398;6.564;2022-08-01T03:34:53;19.50;80.40
53962;DHT22;39868;53.398;6.564;2022-08-01T03:37:46;19.40;80.20
53962;DHT22;39868;53.398;6.564;2022-08-01T03:40:41;19.40;80.20
53962;DHT22;39868;53.398;6.564;2022-08-01T03:43:30;19.30;80.00
53962;DHT22;39868;53.398;6.564;2022-08-01T03:46:03;19.30;79.90
53962;DHT22;39868;53.398;6.564;2022-08-01T03:48:40;19.20;79.80
53962;DHT22;39868;53.398;6.564;2022-08-01T03:51:10;19.20;79.80
53962;DHT22;39868;53.398;6.564;2022-08-01T03:53:41;19.20;79.80
53962;DHT22;39868;53.398;6.564;2022-08-01T03:56:10;19.20;79.80
53962;DHT22;39868;53.398;6.564;2022-08-01T03:58:40;19.10;79.70
53962;DHT22;39868;53.398;6.564;2022-08-01T04:01:09;19.10;79.50
53962;DHT22;39868;53.398;6.564;2022-08-01T04:03:42;19.10;79.50
53962;DHT22;39868;53.398;6.564;2022-08-01T04:06:11;19.10;79.50
53962;DHT22;39868;53.398;6.564;2022-08-01T04:08:41;19.10;79.50
53962;DHT22;39868;53.398;6.564;2022-08-01T04:11:09;19.00;79.50
53962;DHT22;39868;53.398;6.564;2022-08-01T04:13:37;19.00;79.40
53962;DHT22;39868;53.398;6.564;2022-08-01T04:16:05;19.00;79.40
53962;DHT22;39868;53.398;6.564;2022-08-01T04:18:32;19.00;79.40
53962;DHT22;39868;53.398;6.564;2022-08-01T04:21:00;18.90;79.30
53962;DHT22;39868;53.398;6.564;2022-08-01T04:23:29;18.90;79.40
53962;DHT22;39868;53.398;6.564;2022-08-01T04:26:00;18.90;79.50
53962;DHT22;39868;53.398;6.564;2022-08-01T04:28:32;18.90;79.70
53962;DHT22;39868;53.398;6.564;2022-08-01T04:31:02;18.80;79.80
53962;DHT22;39868;53.398;6.564;2022-08-01T04:33:34;18.80;79.90
53962;DHT22;39868;53.398;6.564;2022-08-01T04:36:04;18.80;80.00
53962;DHT22;39868;53.398;6.564;2022-08-01T04:38:35;18.80;80.10
53962;DHT22;39868;53.398;6.564;2022-08-01T04:41:06;18.80;80.30
53962;DHT22;39868;53.398;6.564;2022-08-01T04:43:38;18.80;80.40
53962;DHT22;39868;53.398;6.564;2022-08-01T04:46:07;18.80;80.60
53962;DHT22;39868;53.398;6.564;2022-08-01T04:48:37;18.80;80.70
53962;DHT22;39868;53.398;6.564;2022-08-01T04:51:15;18.80;80.80
53962;DHT22;39868;53.398;6.564;2022-08-01T04:53:44;18.80;80.80
53962;DHT22;39868;53.398;6.564;2022-08-01T04:56:13;18.80;80.90
53962;DHT22;39868;53.398;6.564;2022-08-01T04:58:41;18.80;81.00
53962;DHT22;39868;53.398;6.564;2022-08-01T05:01:09;18.80;81.00
53962;DHT22;39868;53.398;6.564;2022-08-01T05:03:37;18.80;81.00
53962;DHT22;39868;53.398;6.564;2022-08-01T05:06:05;18.80;81.00
53962;DHT22;39868;53.398;6.564;2022-08-01T05:08:33;18.80;81.50
53962;DHT22;39868;53.398;6.564;2022-08-01T05:11:01;18.80;80.90
53962;DHT22;39868;53.398;6.564;2022-08-01T05:13:28;18.80;80.90
53962;DHT22;39868;53.398;6.564;2022-08-01T05:15:56;18.90;80.90
53962;DHT22;39868;53.398;6.564;2022-08-01T05:18:24;18.90;80.90
53962;DHT22;39868;53.398;6.564;2022-08-01T05:20:55;18.90;80.80
53962;DHT22;39868;53.398;6.564;2022-08-01T05:23:22;18.90;80.70
53962;DHT22;39868;53.398;6.564;2022-08-01T05:26:10;18.90;80.60
53962;DHT22;39868;53.398;6.564;2022-08-01T05:28:41;18.90;80.60
53962;DHT22;39868;53.398;6.564;2022-08-01T05:31:09;18.90;80.60
53962;DHT22;39868;53.398;6.564;2022-08-01T05:33:36;18.90;80.60
53962;DHT22;39868;53.398;6.564;2022-08-01T05:36:04;18.90;80.70
53962;DHT22;39868;53.398;6.564;2022-08-01T05:38:32;19.00;80.70
53962;DHT22;39868;53.398;6.564;2022-08-01T05:40:59;18.90;80.70
53962;DHT22;39868;53.398;6.564;2022-08-01T05:43:27;18.90;80.70
53962;DHT22;39868;53.398;6.564;2022-08-01T05:45:55;19.00;80.70
53962;DHT22;39868;53.398;6.564;2022-08-01T05:48:23;19.00;80.70
53962;DHT22;39868;53.398;6.564;2022-08-01T05:50:51;19.00;80.60
53962;DHT22;39868;53.398;6.564;2022-08-01T05:53:24;19.00;80.60
53962;DHT22;39868;53.398;6.564;2022-08-01T05:55:52;19.00;80.50
53962;DHT22;39868;53.398;6.564;2022-08-01T05:58:19;19.00;80.30
53962;DHT22;39868;53.398;6.564;2022-08-01T06:00:47;19.00;79.90
53962;DHT22;39868;53.398;6.564;2022-08-01T06:03:14;19.00;79.80
53962;DHT22;39868;53.398;6.564;2022-08-01T06:05:42;19.00;79.80
53962;DHT22;39868;53.398;6.564;2022-08-01T06:08:10;19.00;79.80
53962;DHT22;39868;53.398;6.564;2022-08-01T06:10:37;19.00;79.70
53962;DHT22;39868;53.398;6.564;2022-08-01T06:13:05;19.00;79.70
53962;DHT22;39868;53.398;6.564;2022-08-01T06:15:33;19.00;79.60
53962;DHT22;39868;53.398;6.564;2022-08-01T06:18:00;19.00;79.50
53962;DHT22;39868;53.398;6.564;2022-08-01T06:20:28;19.10;79.50
53962;DHT22;39868;53.398;6.564;2022-08-01T06:22:55;19.10;79.60
53962;DHT22;39868;53.398;6.564;2022-08-01T06:25:25;19.10;79.60
53962;DHT22;39868;53.398;6.564;2022-08-01T06:27:53;19.10;79.40
53962;DHT22;39868;53.398;6.564;2022-08-01T06:30:21;19.10;79.30
53962;DHT22;39868;53.398;6.564;2022-08-01T06:32:48;19.10;79.30
53962;DHT22;39868;53.398;6.564;2022-08-01T06:35:16;19.10;79.10
53962;DHT22;39868;53.398;6.564;2022-08-01T06:37:44;19.10;79.20
53962;DHT22;39868;53.398;6.564;2022-08-01T06:40:16;19.20;79.30
53962;DHT22;39868;53.398;6.564;2022-08-01T06:42:44;19.20;79.30
53962;DHT22;39868;53.398;6.564;2022-08-01T06:45:13;19.20;79.20
53962;DHT22;39868;53.398;6.564;2022-08-01T06:47:43;19.20;79.20
53962;DHT22;39868;53.398;6.564;2022-08-01T06:50:17;19.20;79.00
53962;DHT22;39868;53.398;6.564;2022-08-01T06:52:44;19.20;78.50
53962;DHT22;39868;53.398;6.564;2022-08-01T06:55:12;19.20;78.40
53962;DHT22;39868;53.398;6.564;2022-08-01T06:57:51;19.20;78.50
53962;DHT22;39868;53.398;6.564;2022-08-01T07:00:21;19.20;78.20
53962;DHT22;39868;53.398;6.564;2022-08-01T07:02:53;19.20;78.30
53962;DHT22;39868;53.398;6.564;2022-08-01T07:05:21;19.10;78.20
53962;DHT22;39868;53.398;6.564;2022-08-01T07:07:49;19.10;77.40
53962;DHT22;39868;53.398;6.564;2022-08-01T07:10:17;19.10;77.40
53962;DHT22;39868;53.398;6.564;2022-08-01T07:12:45;19.20;77.60
53962;DHT22;39868;53.398;6.564;2022-08-01T07:15:13;19.20;77.60
53962;DHT22;39868;53.398;6.564;2022-08-01T07:17:42;19.20;77.00
53962;DHT22;39868;53.398;6.564;2022-08-01T07:20:11;19.20;77.30
53962;DHT22;39868;53.398;6.564;2022-08-01T07:22:42;19.20;77.50
53962;DHT22;39868;53.398;6.564;2022-08-01T07:25:14;19.20;77.30
53962;DHT22;39868;53.398;6.564;2022-08-01T07:27:42;19.20;77.30
53962;DHT22;39868;53.398;6.564;2022-08-01T07:30:10;19.30;77.30
53962;DHT22;39868;53.398;6.564;2022-08-01T07:32:37;19.30;77.30
53962;DHT22;39868;53.398;6.564;2022-08-01T07:35:05;19.30;77.30
53962;DHT22;39868;53.398;6.564;2022-08-01T07:37:33;19.30;77.30
53962;DHT22;39868;53.398;6.564;2022-08-01T07:40:16;19.30;76.50
53962;DHT22;39868;53.398;6.564;2022-08-01T07:42:45;19.30;76.40
53962;DHT22;39868;53.398;6.564;2022-08-01T07:45:13;19.30;76.30
53962;DHT22;39868;53.398;6.564;2022-08-01T07:47:41;19.30;76.50
53962;DHT22;39868;53.398;6.564;2022-08-01T07:50:09;19.30;76.70
53962;DHT22;39868;53.398;6.564;2022-08-01T07:52:37;19.30;76.70
53962;DHT22;39868;53.398;6.564;2022-08-01T07:55:05;19.40;75.90
53962;DHT22;39868;53.398;6.564;2022-08-01T07:57:33;19.40;76.00
53962;DHT22;39868;53.398;6.564;2022-08-01T08:00:02;19.40;75.40
53962;DHT22;39868;53.398;6.564;2022-08-01T08:02:30;19.40;75.40
53962;DHT22;39868;53.398;6.564;2022-08-01T08:04:58;19.50;75.60
53962;DHT22;39868;53.398;6.564;2022-08-01T08:07:25;19.50;74.70
53962;DHT22;39868;53.398;6.564;2022-08-01T08:09:53;19.50;74.30
53962;DHT22;39868;53.398;6.564;2022-08-01T08:12:21;19.60;74.50
53962;DHT22;39868;53.398;6.564;2022-08-01T08:14:56;19.60;74.70
53962;DHT22;39868;53.398;6.564;2022-08-01T08:17:27;19.60;74.60
53962;DHT22;39868;53.398;6.564;2022-08-01T08:20:03;19.70;74.90
53962;DHT22;39868;53.398;6.564;2022-08-01T08:22:35;19.70;74.80
53962;DHT22;39868;53.398;6.564;2022-08-01T08:25:03;19.70;74.70
53962;DHT22;39868;53.398;6.564;2022-08-01T08:27:34;19.80;74.80
53962;DHT22;39868;53.398;6.564;2022-08-01T08:30:05;19.80;74.60
53962;DHT22;39868;53.398;6.564;2022-08-01T08:32:39;19.80;74.10
53962;DHT22;39868;53.398;6.564;2022-08-01T08:35:07;19.80;73.80
53962;DHT22;39868;53.398;6.564;2022-08-01T08:37:39;19.80;73.50
53962;DHT22;39868;53.398;6.564;2022-08-01T08:40:15;19.80;74.00
53962;DHT22;39868;53.398;6.564;2022-08-01T08:42:44;19.90;74.10
53962;DHT22;39868;53.398;6.564;2022-08-01T08:45:13;19.90;74.30
53962;DHT22;39868;53.398;6.564;2022-08-01T08:47:41;19.90;73.90
53962;DHT22;39868;53.398;6.564;2022-08-01T08:50:10;19.90;73.60
53962;DHT22;39868;53.398;6.564;2022-08-01T08:52:39;19.90;73.50
53962;DHT22;39868;53.398;6.564;2022-08-01T08:55:07;19.90;72.80
53962;DHT22;39868;53.398;6.564;2022-08-01T08:57:36;20.00;72.10
53962;DHT22;39868;53.398;6.564;2022-08-01T09:00:07;20.00;72.10
53962;DHT22;39868;53.398;6.564;2022-08-01T09:02:36;20.00;72.20
53962;DHT22;39868;53.398;6.564;2022-08-01T09:05:07;20.00;72.80
53962;DHT22;39868;53.398;6.564;2022-08-01T09:07:35;20.00;72.30
53962;DHT22;39868;53.398;6.564;2022-08-01T09:10:03;20.10;72.10
53962;DHT22;39868;53.398;6.564;2022-08-01T09:12:31;20.10;72.00
53962;DHT22;39868;53.398;6.564;2022-08-01T09:14:59;20.10;72.20
53962;DHT22;39868;53.398;6.564;2022-08-01T09:17:26;20.20;72.00
53962;DHT22;39868;53.398;6.564;2022-08-01T09:19:55;20.20;71.30
53962;DHT22;39868;53.398;6.564;2022-08-01T09:22:25;20.20;70.80
53962;DHT22;39868;53.398;6.564;2022-08-01T09:25:09;20.30;70.20
53962;DHT22;39868;53.398;6.564;2022-08-01T09:27:38;20.30;69.90
53962;DHT22;39868;53.398;6.564;2022-08-01T09:30:18;20.40;69.70
53962;DHT22;39868;53.398;6.564;2022-08-01T09:32:59;20.40;69.00
53962;DHT22;39868;53.398;6.564;2022-08-01T09:35:37;20.50;68.50
53962;DHT22;39868;53.398;6.564;2022-08-01T09:38:14;20.50;68.80
53962;DHT22;39868;53.398;6.564;2022-08-01T09:41:00;20.50;69.50
53962;DHT22;39868;53.398;6.564;2022-08-01T09:43:30;20.50;68.80
53962;DHT22;39868;53.398;6.564;2022-08-01T09:45:59;20.50;68.30
53962;DHT22;39868;53.398;6.564;2022-08-01T09:48:27;20.50;68.10
53962;DHT22;39868;53.398;6.564;2022-08-01T09:50:57;20.50;68.40
53962;DHT22;39868;53.398;6.564;2022-08-01T09:53:47;20.50;68.10
53962;DHT22;39868;53.398;6.564;2022-08-01T09:56:20;20.50;67.90
53962;DHT22;39868;53.398;6.564;2022-08-01T10:01:25;20.50;67.60
53962;DHT22;39868;53.398;6.564;2022-08-01T10:04:11;20.60;67.60
53962;DHT22;39868;53.398;6.564;2022-08-01T10:06:40;20.60;67.30
53962;DHT22;39868;53.398;6.564;2022-08-01T10:09:12;20.60;68.40
53962;DHT22;39868;53.398;6.564;2022-08-01T10:11:41;20.60;67.50
53962;DHT22;39868;53.398;6.564;2022-08-01T10:14:11;20.60;67.50
53962;DHT22;39868;53.398;6.564;2022-08-01T10:16:45;20.60;65.90
53962;DHT22;39868;53.398;6.564;2022-08-01T10:19:31;20.60;65.10
53962;DHT22;39868;53.398;6.564;2022-08-01T10:22:00;20.70;65.60
53962;DHT22;39868;53.398;6.564;2022-08-01T10:24:29;20.70;65.50
53962;DHT22;39868;53.398;6.564;2022-08-01T10:27:03;20.70;65.80
53962;DHT22;39868;53.398;6.564;2022-08-01T10:29:42;20.70;65.70
53962;DHT22;39868;53.398;6.564;2022-08-01T10:32:32;20.70;64.40
53962;DHT22;39868;53.398;6.564;2022-08-01T10:35:03;20.70;64.80
53962;DHT22;39868;53.398;6.564;2022-08-01T10:37:35;20.70;65.00
53962;DHT22;39868;53.398;6.564;2022-08-01T10:40:19;20.70;65.60
53962;DHT22;39868;53.398;6.564;2022-08-01T10:42:58;20.70;65.70
53962;DHT22;39868;53.398;6.564;2022-08-01T10:45:26;20.70;66.30
53962;DHT22;39868;53.398;6.564;2022-08-01T10:48:39;20.70;64.50
53962;DHT22;39868;53.398;6.564;2022-08-01T10:50:52;20.70;64.00
53962;DHT22;39868;53.398;6.564;2022-08-01T10:53:24;20.70;64.80
53962;DHT22;39868;53.398;6.564;2022-08-01T10:56:09;20.70;64.70
53962;DHT22;39868;53.398;6.564;2022-08-01T10:58:42;20.70;64.90
53962;DHT22;39868;53.398;6.564;2022-08-01T11:03:45;20.80;64.10
53962;DHT22;39868;53.398;6.564;2022-08-01T11:12:12;20.80;64.40
53962;DHT22;39868;53.398;6.564;2022-08-01T11:17:40;20.90;64.50
53962;DHT22;39868;53.398;6.564;2022-08-01T11:20:25;20.90;64.50
53962;DHT22;39868;53.398;6.564;2022-08-01T11:28:28;20.90;63.60
53962;DHT22;39868;53.398;6.564;2022-08-01T11:41:29;21.00;62.50
53962;DHT22;39868;53.398;6.564;2022-08-01T11:44:07;21.00;62.90
53962;DHT22;39868;53.398;6.564;2022-08-01T11:47:00;21.00;64.00
53962;DHT22;39868;53.398;6.564;2022-08-01T11:52:25;21.00;63.40
53962;DHT22;39868;53.398;6.564;2022-08-01T11:54:55;21.00;63.80
53962;DHT22;39868;53.398;6.564;2022-08-01T11:57:24;21.00;64.10
53962;DHT22;39868;53.398;6.564;2022-08-01T12:02:43;21.10;63.10
53962;DHT22;39868;53.398;6.564;2022-08-01T12:05:14;21.20;62.60
53962;DHT22;39868;53.398;6.564;2022-08-01T12:07:44;21.30;63.40
53962;DHT22;39868;53.398;6.564;2022-08-01T12:10:15;21.30;63.60
53962;DHT22;39868;53.398;6.564;2022-08-01T12:13:00;21.40;63.00
53962;DHT22;39868;53.398;6.564;2022-08-01T12:15:36;21.50;62.40
53962;DHT22;39868;53.398;6.564;2022-08-01T12:18:06;21.50;63.00
53962;DHT22;39868;53.398;6.564;2022-08-01T12:20:43;21.60;62.10
53962;DHT22;39868;53.398;6.564;2022-08-01T12:23:23;21.70;61.90
53962;DHT22;39868;53.398;6.564;2022-08-01T12:25:51;21.80;62.50
53962;DHT22;39868;53.398;6.564;2022-08-01T12:28:19;21.80;62.40
53962;DHT22;39868;53.398;6.564;2022-08-01T12:30:48;21.80;62.30
53962;DHT22;39868;53.398;6.564;2022-08-01T12:33:18;21.90;61.60
53962;DHT22;39868;53.398;6.564;2022-08-01T12:35:46;21.90;62.10
53962;DHT22;39868;53.398;6.564;2022-08-01T12:38:20;22.00;61.60
53962;DHT22;39868;53.398;6.564;2022-08-01T12:40:50;22.00;61.60
53962;DHT22;39868;53.398;6.564;2022-08-01T12:43:22;22.10;61.70
53962;DHT22;39868;53.398;6.564;2022-08-01T12:45:57;22.20;61.00
53962;DHT22;39868;53.398;6.564;2022-08-01T12:48:27;22.20;61.30
53962;DHT22;39868;53.398;6.564;2022-08-01T12:50:56;22.30;61.50
53962;DHT22;39868;53.398;6.564;2022-08-01T12:53:25;22.30;61.30
53962;DHT22;39868;53.398;6.564;2022-08-01T12:56:08;22.30;61.50
53962;DHT22;39868;53.398;6.564;2022-08-01T12:58:38;22.30;60.50
53962;DHT22;39868;53.398;6.564;2022-08-01T13:01:08;22.40;60.20
53962;DHT22;39868;53.398;6.564;2022-08-01T13:03:37;22.30;61.00
53962;DHT22;39868;53.398;6.564;2022-08-01T13:06:12;22.30;60.20
53962;DHT22;39868;53.398;6.564;2022-08-01T13:08:43;22.30;60.70
53962;DHT22;39868;53.398;6.564;2022-08-01T13:11:12;22.30;60.60
53962;DHT22;39868;53.398;6.564;2022-08-01T13:13:51;22.40;61.30
53962;DHT22;39868;53.398;6.564;2022-08-01T13:16:22;22.40;61.00
53962;DHT22;39868;53.398;6.564;2022-08-01T13:19:04;22.50;60.60
53962;DHT22;39868;53.398;6.564;2022-08-01T13:21:34;22.40;60.60
53962;DHT22;39868;53.398;6.564;2022-08-01T13:24:28;22.50;60.60
53962;DHT22;39868;53.398;6.564;2022-08-01T13:26:58;22.50;60.30
53962;DHT22;39868;53.398;6.564;2022-08-01T13:29:36;22.50;60.20
53962;DHT22;39868;53.398;6.564;2022-08-01T13:32:13;22.60;59.80
53962;DHT22;39868;53.398;6.564;2022-08-01T13:35:12;22.60;58.60
53962;DHT22;39868;53.398;6.564;2022-08-01T13:37:41;22.60;59.70
53962;DHT22;39868;53.398;6.564;2022-08-01T13:40:10;22.50;59.00
53962;DHT22;39868;53.398;6.564;2022-08-01T13:42:38;22.50;58.70
53962;DHT22;39868;53.398;6.564;2022-08-01T13:45:07;22.50;58.60
53962;DHT22;39868;53.398;6.564;2022-08-01T13:47:40;22.50;58.50
53962;DHT22;39868;53.398;6.564;2022-08-01T13:50:28;22.50;58.40
53962;DHT22;39868;53.398;6.564;2022-08-01T13:52:55;22.60;58.80
53962;DHT22;39868;53.398;6.564;2022-08-01T13:55:23;22.60;58.60
53962;DHT22;39868;53.398;6.564;2022-08-01T13:57:53;22.60;58.60
53962;DHT22;39868;53.398;6.564;2022-08-01T14:00:21;22.60;59.00
53962;DHT22;39868;53.398;6.564;2022-08-01T14:02:49;22.60;59.00
53962;DHT22;39868;53.398;6.564;2022-08-01T14:05:16;22.70;59.30
53962;DHT22;39868;53.398;6.564;2022-08-01T14:07:44;22.70;59.10
53962;DHT22;39868;53.398;6.564;2022-08-01T14:10:14;22.80;57.50
53962;DHT22;39868;53.398;6.564;2022-08-01T14:12:49;22.80;59.30
53962;DHT22;39868;53.398;6.564;2022-08-01T14:15:17;22.90;57.70
53962;DHT22;39868;53.398;6.564;2022-08-01T14:18:08;23.00;58.50
53962;DHT22;39868;53.398;6.564;2022-08-01T14:20:37;23.10;58.20
53962;DHT22;39868;53.398;6.564;2022-08-01T14:23:05;23.10;60.00
53962;DHT22;39868;53.398;6.564;2022-08-01T14:25:38;23.20;58.30
53962;DHT22;39868;53.398;6.564;2022-08-01T14:28:27;23.30;58.30
53962;DHT22;39868;53.398;6.564;2022-08-01T14:30:57;23.30;58.30
53962;DHT22;39868;53.398;6.564;2022-08-01T14:33:27;23.40;57.40
53962;DHT22;39868;53.398;6.564;2022-08-01T14:35:55;23.50;59.30
53962;DHT22;39868;53.398;6.564;2022-08-01T14:38:43;23.50;56.70
53962;DHT22;39868;53.398;6.564;2022-08-01T14:41:16;23.50;56.80
53962;DHT22;39868;53.398;6.564;2022-08-01T14:43:43;23.50;57.10
53962;DHT22;39868;53.398;6.564;2022-08-01T14:46:11;23.50;56.50
53962;DHT22;39868;53.398;6.564;2022-08-01T14:48:40;23.60;56.50
53962;DHT22;39868;53.398;6.564;2022-08-01T14:51:08;23.50;56.30
53962;DHT22;39868;53.398;6.564;2022-08-01T14:53:35;23.40;55.60
53962;DHT22;39868;53.398;6.564;2022-08-01T14:56:05;23.40;56.30
53962;DHT22;39868;53.398;6.564;2022-08-01T14:58:33;23.40;56.00
53962;DHT22;39868;53.398;6.564;2022-08-01T15:01:01;23.30;55.80
53962;DHT22;39868;53.398;6.564;2022-08-01T15:03:28;23.30;55.80
53962;DHT22;39868;53.398;6.564;2022-08-01T15:05:56;23.30;55.90
53962;DHT22;39868;53.398;6.564;2022-08-01T15:08:24;23.30;55.40
53962;DHT22;39868;53.398;6.564;2022-08-01T15:10:51;23.30;55.40
53962;DHT22;39868;53.398;6.564;2022-08-01T15:13:19;23.30;55.80
53962;DHT22;39868;53.398;6.564;2022-08-01T15:15:46;23.30;56.10
53962;DHT22;39868;53.398;6.564;2022-08-01T15:18:14;23.40;55.90
53962;DHT22;39868;53.398;6.564;2022-08-01T15:20:42;23.40;55.30
53962;DHT22;39868;53.398;6.564;2022-08-01T15:23:09;23.40;55.80
53962;DHT22;39868;53.398;6.564;2022-08-01T15:25:37;23.40;56.30
53962;DHT22;39868;53.398;6.564;2022-08-01T15:28:11;23.40;56.30
53962;DHT22;39868;53.398;6.564;2022-08-01T15:30:39;23.40;55.70
53962;DHT22;39868;53.398;6.564;2022-08-01T15:33:07;23.40;55.70
53962;DHT22;39868;53.398;6.564;2022-08-01T15:35:35;23.40;56.50
53962;DHT22;39868;53.398;6.564;2022-08-01T15:38:03;23.40;56.50
53962;DHT22;39868;53.398;6.564;2022-08-01T15:40:30;23.40;56.30
53962;DHT22;39868;53.398;6.564;2022-08-01T15:43:02;23.40;55.80
53962;DHT22;39868;53.398;6.564;2022-08-01T15:45:29;23.40;56.60
53962;DHT22;39868;53.398;6.564;2022-08-01T15:48:18;23.40;55.50
53962;DHT22;39868;53.398;6.564;2022-08-01T15:50:45;23.40;56.20
53962;DHT22;39868;53.398;6.564;2022-08-01T15:53:14;23.40;55.40
53962;DHT22;39868;53.398;6.564;2022-08-01T15:55:42;23.40;55.00
53962;DHT22;39868;53.398;6.564;2022-08-01T15:58:18;23.40;55.00
53962;DHT22;39868;53.398;6.564;2022-08-01T16:00:46;23.40;54.80
53962;DHT22;39868;53.398;6.564;2022-08-01T16:03:14;23.40;54.60
53962;DHT22;39868;53.398;6.564;2022-08-01T16:05:41;23.40;54.90
53962;DHT22;39868;53.398;6.564;2022-08-01T16:08:11;23.40;55.20
53962;DHT22;39868;53.398;6.564;2022-08-01T16:10:39;23.40;54.90
53962;DHT22;39868;53.398;6.564;2022-08-01T16:13:08;23.40;55.00
53962;DHT22;39868;53.398;6.564;2022-08-01T16:15:36;23.40;55.60
53962;DHT22;39868;53.398;6.564;2022-08-01T16:18:08;23.40;55.00
53962;DHT22;39868;53.398;6.564;2022-08-01T16:20:36;23.30;54.60
53962;DHT22;39868;53.398;6.564;2022-08-01T16:23:12;23.30;54.70
53962;DHT22;39868;53.398;6.564;2022-08-01T16:25:39;23.30;54.70
53962;DHT22;39868;53.398;6.564;2022-08-01T16:28:07;23.30;54.90
53962;DHT22;39868;53.398;6.564;2022-08-01T16:30:36;23.20;55.00
53962;DHT22;39868;53.398;6.564;2022-08-01T16:33:17;23.30;55.80
53962;DHT22;39868;53.398;6.564;2022-08-01T16:36:05;23.20;55.10
53962;DHT22;39868;53.398;6.564;2022-08-01T16:38:33;23.10;55.60